DABT

Batna Airport

Batna, Algeria
METAR DABT 250000Z 15002KT CAVOK 19/13 Q1017
Observed Flight Rules
Apr-25 @ 00:00 UTC (50 minutes ago) Visual Flight Rules
Wind Visibility Clouds
150° at 2 knots 10,000+ meters
  • Clear skies
Temperatures Readings
Current 19°C / 66°F
Dewpoint 13°C / 55°F
Humidity 68%
Altimeter 30.03" Hg
Pressure 1017 hPa
Elevation 823
METAR DABT 250000Z 15002KT CAVOK 19/13 Q1017
Observed Flight Rules
Apr-25 @ 00:00 UTC
(50 minutes ago)
VFR
Wind Visibility
150° at 2 knots 10,000+ meters
Clouds
  • Clear skies
Temperature Dewpoint
19°C / 66°F 13°C / 55°F
Humidity Altimeter Pressure
68% 30.03" Hg 1017 hPa